Time;durP1;ratioP1;P1;durP2;ratioP2;P2;SDS_P1;SDS_P2;PMS_P1;PMS_P2;Temp;Humidity;BMP_temperature;BMP_pressure;BME280_temperature;BME280_humidity;BME280_pressure;Samples;Min_cycle;Max_cycle;Signal;HPM_P1;HPM_P2
2022/04/03 00:02:02;;;;;;;3.13;1.55;;;5.90;98.90;;;;;;5044890;28;20253;-78
2022/04/03 00:04:27;;;;;;;3.05;1.52;;;5.90;98.80;;;;;;5041365;28;20185;-78
2022/04/03 00:06:54;;;;;;;2.50;1.80;;;5.90;98.90;;;;;;5044372;28;20189;-78
2022/04/03 00:09:20;;;;;;;2.00;1.80;;;5.90;99.00;;;;;;5045873;28;20205;-78
2022/04/03 00:11:46;;;;;;;2.27;1.93;;;5.90;99.00;;;;;;5032767;28;20193;-78
2022/04/03 00:14:12;;;;;;;2.53;1.80;;;5.90;99.00;;;;;;5033226;28;20643;-78
2022/04/03 00:16:39;;;;;;;2.47;2.00;;;5.90;99.10;;;;;;5038984;28;20303;-78
2022/04/03 00:19:04;;;;;;;3.08;2.05;;;5.90;99.10;;;;;;5040459;28;20603;-78
2022/04/03 00:21:30;;;;;;;3.40;2.37;;;5.90;99.40;;;;;;5043304;28;20201;-78
2022/04/03 00:23:56;;;;;;;3.97;1.90;;;5.90;99.00;;;;;;5045848;28;20210;-79
2022/04/03 00:26:22;;;;;;;2.80;2.07;;;5.90;99.00;;;;;;5051315;28;20592;-78
2022/04/03 00:28:47;;;;;;;2.40;1.80;;;5.90;99.20;;;;;;5051596;28;20617;-77
2022/04/03 00:31:13;;;;;;;3.40;2.23;;;5.90;99.10;;;;;;5051633;28;20786;-78
2022/04/03 00:33:40;;;;;;;5.13;2.80;;;5.80;99.10;;;;;;5049792;28;20208;-78
2022/04/03 00:36:06;;;;;;;3.22;1.95;;;5.90;99.10;;;;;;5041313;28;20204;-78
2022/04/03 00:38:32;;;;;;;2.13;1.93;;;5.80;99.10;;;;;;5043761;28;20656;-78
2022/04/03 00:41:01;;;;;;;2.42;1.58;;;5.80;99.10;;;;;;5039607;28;20598;-78
2022/04/03 00:43:26;;;;;;;1.92;1.63;;;5.80;99.20;;;;;;5044686;28;20196;-78
2022/04/03 00:45:53;;;;;;;2.00;1.30;;;5.80;99.20;;;;;;5038841;28;20283;-77
2022/04/03 00:48:18;;;;;;;1.80;1.30;;;5.80;99.30;;;;;;5046542;28;20169;-78
2022/04/03 00:50:45;;;;;;;2.70;1.83;;;5.80;99.30;;;;;;5052264;28;20199;-78
2022/04/03 00:53:11;;;;;;;2.10;1.50;;;5.80;99.10;;;;;;5044799;28;20593;-78
2022/04/03 00:55:40;;;;;;;2.30;1.52;;;5.80;99.30;;;;;;5042189;28;20194;-78
2022/04/03 00:58:10;;;;;;;2.50;1.63;;;5.80;99.10;;;;;;5050534;28;20264;-78
2022/04/03 01:00:37;;;;;;;3.05;1.65;;;5.80;99.30;;;;;;5050802;28;20173;-78
2022/04/03 01:03:03;;;;;;;3.28;1.77;;;5.80;99.40;;;;;;5051012;28;20200;-78
2022/04/03 01:05:29;;;;;;;2.53;1.63;;;5.80;99.50;;;;;;5050659;28;20288;-78
2022/04/03 01:07:55;;;;;;;2.37;2.17;;;5.80;99.50;;;;;;5038636;28;20288;-78
2022/04/03 01:10:21;;;;;;;2.53;1.40;;;5.80;99.60;;;;;;5031511;28;20584;-78
2022/04/03 01:12:47;;;;;;;2.50;1.77;;;5.80;99.50;;;;;;5038320;28;20581;-78
2022/04/03 01:15:17;;;;;;;2.63;1.77;;;5.80;99.60;;;;;;5045753;28;20169;-77
2022/04/03 01:17:43;;;;;;;2.28;1.50;;;5.80;99.50;;;;;;5033736;28;20173;-78
2022/04/03 01:20:10;;;;;;;2.53;1.73;;;5.80;99.60;;;;;;5050245;28;20169;-78
2022/04/03 01:22:37;;;;;;;1.60;1.20;;;5.80;99.60;;;;;;5050417;28;20207;-78
2022/04/03 01:25:04;;;;;;;1.70;1.27;;;5.80;99.70;;;;;;5050580;28;20204;-78
2022/04/03 01:27:29;;;;;;;3.60;2.08;;;5.80;99.70;;;;;;5045105;28;20219;-77
2022/04/03 01:29:57;;;;;;;2.23;1.33;;;5.80;99.60;;;;;;5043173;28;20165;-78
2022/04/03 01:32:24;;;;;;;3.05;2.33;;;5.80;99.70;;;;;;5046529;28;20235;-78
2022/04/03 01:34:50;;;;;;;2.38;1.50;;;5.80;99.80;;;;;;5031893;28;20174;-78
2022/04/03 01:37:16;;;;;;;2.10;1.75;;;5.80;99.90;;;;;;5030136;28;20205;-79
2022/04/03 01:39:41;;;;;;;4.53;1.87;;;5.80;99.90;;;;;;5031362;28;20661;-79
2022/04/03 01:42:07;;;;;;;2.20;1.53;;;5.70;99.80;;;;;;5030110;28;20685;-78
2022/04/03 01:44:33;;;;;;;2.80;1.80;;;5.70;99.80;;;;;;5013797;28;20264;-78
2022/04/03 01:46:59;;;;;;;3.63;2.17;;;5.80;99.90;;;;;;5030304;28;20612;-78
2022/04/03 01:49:24;;;;;;;3.23;1.90;;;5.80;99.90;;;;;;5031179;28;20236;-78
2022/04/03 01:51:50;;;;;;;2.47;1.33;;;5.70;99.90;;;;;;5031273;28;20633;-78
2022/04/03 01:54:16;;;;;;;2.80;1.80;;;5.70;99.90;;;;;;5030128;28;20642;-78
2022/04/03 01:56:44;;;;;;;3.20;2.08;;;5.70;99.90;;;;;;5030493;28;20596;-78
2022/04/03 01:59:10;;;;;;;2.30;1.50;;;5.70;99.90;;;;;;5027390;28;20166;-77
2022/04/03 02:01:36;;;;;;;2.78;1.45;;;5.70;99.90;;;;;;5031455;28;20199;-77
2022/04/03 02:04:03;;;;;;;4.82;1.90;;;5.70;99.90;;;;;;5031045;28;20189;-78
2022/04/03 02:06:33;;;;;;;2.00;1.25;;;5.70;99.90;;;;;;5031380;28;20192;-77
2022/04/03 02:09:01;;;;;;;2.30;1.50;;;5.70;99.90;;;;;;5033447;28;20515;-77
2022/04/03 02:11:28;;;;;;;4.93;1.67;;;5.70;99.90;;;;;;5040611;28;20180;-77
2022/04/03 02:13:53;;;;;;;1.90;1.45;;;5.70;99.90;;;;;;5042855;28;20207;-77
2022/04/03 02:16:19;;;;;;;2.23;1.67;;;5.70;99.90;;;;;;5055174;28;20204;-77
2022/04/03 02:18:45;;;;;;;2.93;1.60;;;5.70;99.90;;;;;;5054849;28;20169;-77
2022/04/03 02:21:11;;;;;;;2.33;1.40;;;5.70;99.90;;;;;;5048539;28;20180;-77
2022/04/03 02:23:37;;;;;;;3.13;1.92;;;5.70;99.90;;;;;;5044991;28;20173;-77
2022/04/03 02:26:02;;;;;;;2.93;1.63;;;5.70;99.90;;;;;;5044701;28;20555;-77
2022/04/03 02:28:28;;;;;;;2.20;1.53;;;5.70;99.90;;;;;;5048135;28;20938;-78
2022/04/03 02:30:54;;;;;;;2.87;1.90;;;5.70;99.90;;;;;;5047278;28;20161;-78
2022/04/03 02:33:19;;;;;;;2.43;1.93;;;5.70;99.90;;;;;;5055051;28;20197;-78
2022/04/03 02:35:46;;;;;;;2.33;1.85;;;5.60;99.90;;;;;;5054726;28;20201;-78
2022/04/03 02:38:15;;;;;;;2.60;1.67;;;5.60;99.90;;;;;;5053336;28;20180;-78
2022/04/03 02:40:43;;;;;;;2.25;1.55;;;5.60;99.90;;;;;;5053239;28;20567;-78
2022/04/03 02:43:09;;;;;;;2.03;1.83;;;5.60;99.90;;;;;;5054606;28;20204;-78
2022/04/03 02:45:35;;;;;;;2.70;1.70;;;5.60;99.90;;;;;;5053645;28;20529;-79
2022/04/03 02:48:01;;;;;;;2.87;2.10;;;5.60;99.90;;;;;;5054585;28;20168;-78
2022/04/03 02:50:27;;;;;;;2.33;1.33;;;5.60;99.90;;;;;;5054442;28;20555;-78
2022/04/03 02:52:54;;;;;;;2.40;1.75;;;5.60;99.90;;;;;;5053522;28;21003;-78
2022/04/03 02:55:22;;;;;;;2.35;1.70;;;5.60;99.90;;;;;;5053285;28;20197;-78
2022/04/03 02:57:48;;;;;;;4.35;2.30;;;5.60;99.90;;;;;;5054249;28;20172;-78
2022/04/03 03:00:14;;;;;;;2.55;2.03;;;5.50;99.90;;;;;;5053193;28;20169;-78
2022/04/03 03:02:45;;;;;;;3.28;1.90;;;5.50;99.90;;;;;;5054393;28;20239;-78
2022/04/03 03:05:14;;;;;;;2.67;1.73;;;5.50;99.90;;;;;;5054273;28;20210;-78
2022/04/03 03:07:41;;;;;;;3.15;2.13;;;5.50;99.90;;;;;;5054110;28;20160;-78
2022/04/03 03:10:13;;;;;;;2.38;2.05;;;5.50;99.90;;;;;;5040902;28;20605;-78
2022/04/03 03:12:39;;;;;;;2.45;2.25;;;5.50;99.90;;;;;;5033374;28;20228;-78
2022/04/03 03:15:05;;;;;;;2.75;1.98;;;5.50;99.90;;;;;;5034224;28;20258;-78
2022/04/03 03:17:31;;;;;;;3.20;2.13;;;5.50;99.90;;;;;;5034216;28;20218;-78
2022/04/03 03:19:58;;;;;;;2.60;1.90;;;5.40;99.90;;;;;;5033004;28;20534;-78
2022/04/03 03:22:24;;;;;;;2.55;2.00;;;5.40;99.90;;;;;;5041014;28;20197;-78
2022/04/03 03:24:50;;;;;;;3.97;1.73;;;5.40;99.90;;;;;;5045410;28;20268;-78
2022/04/03 03:27:15;;;;;;;3.00;1.73;;;5.40;99.90;;;;;;5053014;28;20602;-77
2022/04/03 03:29:41;;;;;;;2.03;1.60;;;5.40;99.90;;;;;;5053894;28;20169;-78
2022/04/03 03:32:07;;;;;;;2.63;1.60;;;5.40;99.90;;;;;;5049569;28;20231;-77
2022/04/03 03:34:34;;;;;;;1.90;1.30;;;5.40;99.90;;;;;;5043151;28;20234;-77
2022/04/03 03:37:01;;;;;;;2.53;1.30;;;5.40;99.90;;;;;;5045656;28;20288;-77
2022/04/03 03:39:27;;;;;;;2.63;1.55;;;5.40;99.90;;;;;;5049154;28;20177;-77
2022/04/03 03:41:55;;;;;;;2.50;1.80;;;5.30;99.90;;;;;;5039722;28;20246;-77
2022/04/03 03:44:22;;;;;;;3.85;1.75;;;5.30;99.90;;;;;;5044960;28;20181;-77
2022/04/03 03:46:47;;;;;;;2.97;2.08;;;5.30;99.90;;;;;;5044048;28;20216;-77
2022/04/03 03:49:14;;;;;;;2.20;1.43;;;5.30;99.90;;;;;;5046156;28;20205;-78
2022/04/03 03:51:40;;;;;;;3.38;1.80;;;5.30;99.90;;;;;;5043889;28;20685;-78
2022/04/03 03:54:06;;;;;;;3.35;1.42;;;5.30;99.90;;;;;;5041899;28;20284;-78
2022/04/03 03:56:32;;;;;;;2.07;1.73;;;5.30;99.90;;;;;;5042210;28;20277;-78
2022/04/03 03:58:58;;;;;;;2.72;1.70;;;5.20;99.90;;;;;;5043282;28;20583;-78
2022/04/03 04:01:24;;;;;;;2.15;1.60;;;5.20;99.90;;;;;;5046740;28;20282;-78
2022/04/03 04:03:50;;;;;;;2.20;1.70;;;5.20;99.90;;;;;;5045313;28;20168;-78
2022/04/03 04:06:15;;;;;;;3.03;2.20;;;5.20;99.90;;;;;;5051169;28;20541;-78
2022/04/03 04:08:42;;;;;;;3.10;1.67;;;5.20;99.90;;;;;;5042590;28;20200;-78
2022/04/03 04:11:08;;;;;;;2.10;1.33;;;5.20;99.90;;;;;;5038438;28;20705;-78
2022/04/03 04:13:34;;;;;;;2.60;1.60;;;5.10;99.90;;;;;;5042903;28;20169;-78
2022/04/03 04:15:59;;;;;;;4.33;2.63;;;5.20;99.90;;;;;;5028003;28;20252;-78
2022/04/03 04:18:25;;;;;;;2.10;1.90;;;5.10;99.90;;;;;;5044734;28;20640;-78
2022/04/03 04:20:52;;;;;;;2.40;2.10;;;5.10;99.90;;;;;;5045052;28;20169;-78
2022/04/03 04:23:19;;;;;;;2.25;1.77;;;5.10;99.90;;;;;;5037310;28;20664;-78
2022/04/03 04:25:45;;;;;;;4.28;1.85;;;5.10;99.90;;;;;;5053797;22;20244;-77
2022/04/03 04:28:11;;;;;;;3.80;2.20;;;5.00;99.90;;;;;;5012111;28;20174;-76
2022/04/03 04:30:38;;;;;;;2.35;1.65;;;5.00;99.90;;;;;;5011373;28;20202;-76
2022/04/03 04:33:06;;;;;;;2.42;1.60;;;5.00;99.90;;;;;;5012270;28;20540;-76
2022/04/03 04:35:31;;;;;;;3.60;1.90;;;5.00;99.90;;;;;;5012589;28;20194;-76
2022/04/03 04:37:57;;;;;;;2.27;1.63;;;5.00;99.90;;;;;;5011014;28;20691;-76
2022/04/03 04:40:23;;;;;;;2.23;1.47;;;4.90;99.90;;;;;;5012634;28;20266;-76
2022/04/03 04:42:52;;;;;;;2.27;1.57;;;4.90;99.90;;;;;;5012907;28;20229;-78
2022/04/03 04:45:19;;;;;;;2.60;1.75;;;4.90;99.90;;;;;;5013717;28;20277;-77
2022/04/03 04:47:45;;;;;;;2.65;1.60;;;4.90;99.90;;;;;;5012376;28;20166;-76
2022/04/03 04:50:14;;;;;;;2.47;1.75;;;4.90;99.90;;;;;;5012268;28;20166;-77
2022/04/03 04:52:42;;;;;;;2.28;2.00;;;4.90;99.90;;;;;;5012153;28;20182;-77
2022/04/03 04:55:09;;;;;;;3.90;2.60;;;4.90;99.90;;;;;;5012126;28;20190;-77
2022/04/03 04:57:36;;;;;;;2.20;1.73;;;4.90;99.90;;;;;;5011752;28;20534;-77
2022/04/03 05:00:06;;;;;;;4.18;2.35;;;4.90;99.90;;;;;;5012297;28;20523;-77
2022/04/03 05:02:32;;;;;;;2.50;1.40;;;4.90;99.90;;;;;;5010701;28;20225;-76
2022/04/03 05:04:58;;;;;;;2.30;1.70;;;4.80;99.90;;;;;;5013120;28;20194;-76
2022/04/03 05:07:24;;;;;;;4.07;2.67;;;4.80;99.90;;;;;;5011945;28;20613;-76
2022/04/03 05:09:50;;;;;;;2.25;2.03;;;4.80;99.90;;;;;;4996184;28;20207;-77
2022/04/03 05:12:17;;;;;;;4.05;2.28;;;4.80;99.90;;;;;;4972897;28;20175;-75
2022/04/03 05:14:43;;;;;;;4.18;1.95;;;4.80;99.90;;;;;;4973446;28;20198;-76
2022/04/03 05:17:09;;;;;;;3.45;2.15;;;4.70;99.90;;;;;;4972993;28;20168;-76
2022/04/03 05:19:36;;;;;;;4.00;3.03;;;4.70;99.90;;;;;;4987584;28;20182;-77
2022/04/03 05:22:02;;;;;;;3.17;2.03;;;4.70;99.90;;;;;;4972754;28;20627;-76
2022/04/03 05:24:28;;;;;;;2.90;2.35;;;4.70;99.90;;;;;;4972419;28;20191;-77
2022/04/03 05:26:54;;;;;;;2.83;1.90;;;4.60;99.90;;;;;;4972676;28;20172;-77
2022/04/03 05:29:20;;;;;;;3.47;2.30;;;4.60;99.90;;;;;;4971069;28;20654;-76
2022/04/03 05:31:46;;;;;;;3.20;1.90;;;4.60;99.90;;;;;;4972487;28;20260;-77
2022/04/03 05:34:11;;;;;;;3.50;2.00;;;4.60;99.90;;;;;;4972472;28;20567;-76
2022/04/03 05:36:37;;;;;;;4.17;2.63;;;4.60;99.90;;;;;;4972762;28;20178;-76
2022/04/03 05:39:04;;;;;;;4.93;2.28;;;4.60;99.90;;;;;;4972244;28;20546;-76
2022/04/03 05:41:34;;;;;;;3.42;2.88;;;4.60;99.90;;;;;;4955011;28;20207;-77
2022/04/03 05:44:01;;;;;;;3.25;1.92;;;4.60;99.90;;;;;;4972244;28;20250;-77
2022/04/03 05:46:27;;;;;;;2.85;2.25;;;4.60;99.90;;;;;;4972628;28;20183;-77
2022/04/03 05:48:53;;;;;;;3.50;2.60;;;4.70;99.90;;;;;;4971862;28;20163;-77
2022/04/03 05:51:19;;;;;;;2.67;2.10;;;4.70;99.90;;;;;;4972240;28;20219;-77
2022/04/03 05:53:45;;;;;;;5.70;2.50;;;4.70;99.90;;;;;;4972267;28;20571;-77
2022/04/03 05:56:31;;;;;;;3.60;2.40;;;4.70;99.90;;;;;;4972543;28;20219;-77
2022/04/03 05:58:57;;;;;;;3.33;2.85;;;4.80;99.90;;;;;;4972243;28;20270;-77
2022/04/03 06:01:23;;;;;;;3.17;2.30;;;4.80;99.90;;;;;;4972320;28;20268;-77
2022/04/03 06:03:50;;;;;;;5.53;2.20;;;4.80;99.90;;;;;;4970973;28;20168;-77
2022/04/03 06:06:16;;;;;;;2.70;2.35;;;4.90;99.90;;;;;;4974666;28;20188;-78
2022/04/03 06:08:43;;;;;;;3.47;2.25;;;4.90;99.90;;;;;;4989262;28;20175;-78
2022/04/03 06:11:09;;;;;;;4.38;2.67;;;5.00;99.90;;;;;;4991713;28;20171;-77
2022/04/03 06:13:35;;;;;;;3.38;2.42;;;5.00;99.90;;;;;;4991899;28;20163;-76
2022/04/03 06:16:01;;;;;;;4.17;2.00;;;5.00;99.90;;;;;;4991726;28;20560;-78
2022/04/03 06:18:26;;;;;;;3.53;2.17;;;5.00;99.90;;;;;;4991494;28;20575;-77
2022/04/03 06:20:52;;;;;;;2.83;2.07;;;5.00;99.90;;;;;;4991234;28;20170;-76
2022/04/03 06:23:21;;;;;;;4.18;2.40;;;5.00;99.90;;;;;;4991482;28;20203;-76
2022/04/03 06:25:52;;;;;;;3.50;2.10;;;5.00;99.90;;;;;;4989872;28;20203;-76
2022/04/03 06:28:17;;;;;;;3.75;2.28;;;5.00;99.90;;;;;;4991253;28;20164;-77
2022/04/03 06:30:43;;;;;;;3.10;2.20;;;5.00;99.90;;;;;;4991198;28;20163;-77
2022/04/03 06:33:09;;;;;;;4.95;1.90;;;4.90;99.90;;;;;;4990743;28;20171;-77
2022/04/03 06:35:35;;;;;;;5.77;2.43;;;4.90;99.90;;;;;;4989857;28;20758;-77
2022/04/03 06:38:01;;;;;;;3.00;2.07;;;4.90;99.90;;;;;;4991245;28;21297;-77
2022/04/03 06:40:27;;;;;;;2.28;2.00;;;5.00;99.90;;;;;;4991363;28;20201;-77
2022/04/03 06:42:53;;;;;;;4.27;2.57;;;5.00;99.90;;;;;;4990384;28;20207;-77
2022/04/03 06:45:19;;;;;;;3.92;2.42;;;5.10;99.90;;;;;;4991426;28;20186;-76
2022/04/03 06:47:45;;;;;;;3.67;2.90;;;5.20;99.90;;;;;;4990181;28;20705;-76
2022/04/03 06:50:11;;;;;;;4.05;2.60;;;5.30;99.90;;;;;;4991404;28;20585;-77
2022/04/03 06:52:37;;;;;;;5.10;2.50;;;5.40;99.90;;;;;;4991653;28;20254;-77
2022/04/03 06:55:04;;;;;;;6.10;2.53;;;5.50;99.90;;;;;;4995966;28;21211;-76
2022/04/03 06:57:30;;;;;;;4.40;3.05;;;5.70;99.90;;;;;;5009062;28;20182;-77
2022/04/03 06:59:56;;;;;;;5.32;2.80;;;6.00;99.90;;;;;;5010826;28;20639;-78
2022/04/03 07:02:22;;;;;;;3.80;2.83;;;6.60;99.90;;;;;;5013385;28;20205;-78
2022/04/03 07:04:48;;;;;;;6.27;2.77;;;7.20;99.90;;;;;;5014228;28;20588;-77
2022/04/03 07:07:24;;;;;;;4.60;3.07;;;7.50;99.90;;;;;;5003365;28;20204;-77
2022/04/03 07:09:49;;;;;;;2.55;2.35;;;7.70;99.90;;;;;;5005699;28;20178;-77
2022/04/03 07:12:15;;;;;;;4.80;2.80;;;7.90;99.90;;;;;;5014601;28;20506;-77
2022/04/03 07:14:41;;;;;;;2.50;1.90;;;8.50;99.90;;;;;;5014401;28;20553;-75
2022/04/03 07:17:07;;;;;;;3.20;2.00;;;9.50;99.90;;;;;;5012565;28;20569;-76
2022/04/03 07:19:33;;;;;;;5.03;2.80;;;10.50;99.90;;;;;;5014270;28;20705;-76
2022/04/03 07:21:59;;;;;;;2.85;2.13;;;11.60;99.90;;;;;;5013790;28;20213;-76
2022/04/03 07:24:26;;;;;;;3.03;2.67;;;12.60;99.90;;;;;;5011885;28;20632;-76
2022/04/03 07:26:56;;;;;;;5.30;1.93;;;13.70;99.90;;;;;;5013576;28;20570;-76
2022/04/03 07:29:23;;;;;;;3.17;2.27;;;14.80;99.90;;;;;;5013673;28;20609;-76
2022/04/03 07:31:50;;;;;;;3.07;2.30;;;15.80;99.90;;;;;;5013445;28;20558;-76
2022/04/03 07:34:17;;;;;;;5.43;2.83;;;16.60;99.90;;;;;;5013844;28;20573;-76
2022/04/03 07:36:43;;;;;;;4.13;2.00;;;17.40;99.90;;;;;;5012586;28;20561;-76
2022/04/03 07:39:12;;;;;;;4.27;2.43;;;18.20;99.90;;;;;;5013499;28;20579;-76
2022/04/03 07:41:38;;;;;;;2.50;2.10;;;18.80;99.80;;;;;;5012200;28;20276;-76
2022/04/03 07:44:06;;;;;;;3.93;2.73;;;19.40;98.90;;;;;;5006915;28;20586;-75
2022/04/03 07:46:31;;;;;;;2.33;1.90;;;19.90;96.90;;;;;;4990606;28;20948;-76
2022/04/03 07:48:57;;;;;;;5.30;2.20;;;20.40;95.80;;;;;;4990776;28;20578;-75
2022/04/03 07:51:23;;;;;;;3.73;2.20;;;20.90;95.40;;;;;;4995015;28;20245;-75
2022/04/03 07:53:50;;;;;;;2.53;1.77;;;21.30;92.70;;;;;;4973388;28;20246;-76
2022/04/03 07:56:16;;;;;;;2.53;1.67;;;21.70;91.90;;;;;;4956824;28;21007;-76
2022/04/03 07:58:42;;;;;;;3.00;1.80;;;22.00;91.30;;;;;;4974551;28;20570;-77
2022/04/03 08:01:08;;;;;;;3.35;3.05;;;22.50;90.80;;;;;;4984256;28;20718;-77
2022/04/03 08:03:33;;;;;;;2.87;1.90;;;22.50;67.10;;;;;;4994141;28;20273;-76
2022/04/03 08:05:59;;;;;;;2.40;1.90;;;23.10;76.40;;;;;;4993656;28;20198;-76
2022/04/03 08:08:25;;;;;;;2.43;1.80;;;23.60;78.50;;;;;;4993139;28;20167;-75
2022/04/03 08:10:51;;;;;;;2.70;2.20;;;24.20;78.20;;;;;;4988136;28;20756;-76
2022/04/03 08:13:17;;;;;;;3.90;2.92;;;24.00;57.90;;;;;;4973328;28;21222;-76
2022/04/03 08:15:43;;;;;;;2.33;1.77;;;23.90;52.10;;;;;;4974021;28;20278;-76
2022/04/03 08:18:09;;;;;;;3.17;1.80;;;24.40;58.70;;;;;;4988614;28;20563;-76
2022/04/03 08:20:35;;;;;;;3.00;1.87;;;24.90;59.90;;;;;;4973869;28;21153;-76
2022/04/03 08:23:03;;;;;;;1.90;1.20;;;25.20;59.30;;;;;;4988769;28;20763;-76
2022/04/03 08:25:33;;;;;;;2.30;1.40;;;25.50;59.10;;;;;;4972255;28;20603;-76
2022/04/03 08:28:00;;;;;;;2.10;1.67;;;25.70;56.80;;;;;;4972431;28;20563;-76
2022/04/03 08:30:32;;;;;;;2.73;1.93;;;25.80;55.40;;;;;;4988568;28;20717;-77
2022/04/03 08:32:59;;;;;;;3.43;1.50;;;25.80;55.00;;;;;;4993005;28;20908;-75
2022/04/03 08:35:28;;;;;;;2.23;1.33;;;25.90;55.20;;;;;;4993138;28;20614;-76
2022/04/03 08:37:55;;;;;;;1.80;1.27;;;26.20;55.60;;;;;;4992979;28;20670;-75
2022/04/03 08:40:22;;;;;;;2.93;1.70;;;26.40;55.20;;;;;;4991972;28;20613;-75
2022/04/03 08:42:51;;;;;;;2.30;1.40;;;26.60;54.80;;;;;;4992783;28;20610;-75
2022/04/03 08:45:17;;;;;;;2.70;2.13;;;26.80;54.40;;;;;;4993009;28;20704;-75
2022/04/03 08:47:49;;;;;;;1.77;1.30;;;27.00;53.90;;;;;;4991105;28;20577;-76
2022/04/03 08:50:16;;;;;;;2.47;1.43;;;27.10;52.20;;;;;;4991711;28;20581;-76
2022/04/03 08:52:50;;;;;;;3.00;1.50;;;27.30;52.90;;;;;;4991357;28;20586;-75
2022/04/03 08:55:17;;;;;;;2.23;1.60;;;27.30;51.10;;;;;;4993100;28;20659;-76
2022/04/03 08:57:43;;;;;;;2.40;1.30;;;27.20;49.60;;;;;;4992519;28;20639;-76
2022/04/03 09:00:10;;;;;;;2.97;1.47;;;27.20;49.00;;;;;;4993197;28;20567;-78
2022/04/03 09:02:37;;;;;;;2.10;1.40;;;27.10;49.40;;;;;;4993010;28;20681;-77
2022/04/03 09:05:06;;;;;;;3.00;1.87;;;27.30;49.40;;;;;;4993314;28;20677;-77
2022/04/03 09:07:32;;;;;;;1.87;1.00;;;27.40;49.00;;;;;;4993565;28;20597;-77
2022/04/03 09:10:05;;;;;;;2.07;1.20;;;27.50;49.40;;;;;;4992670;28;20682;-77
2022/04/03 09:12:31;;;;;;;1.90;1.20;;;27.50;46.70;;;;;;4991696;28;20604;-77
2022/04/03 09:14:57;;;;;;;3.23;2.20;;;27.40;46.70;;;;;;4992513;28;20590;-77
2022/04/03 09:17:37;;;;;;;1.70;1.30;;;27.20;45.20;;;;;;4994137;28;21129;-77
2022/04/03 09:20:12;;;;;;;2.10;1.40;;;27.00;44.60;;;;;;4990255;28;20590;-77
2022/04/03 09:22:39;;;;;;;1.90;1.30;;;26.20;43.70;;;;;;4989325;28;20634;-77
2022/04/03 09:25:06;;;;;;;2.40;1.40;;;25.80;45.00;;;;;;4995735;28;20633;-77
2022/04/03 09:28:03;;;;;;;2.77;1.50;;;25.70;45.50;;;;;;4992016;28;20563;-76
2022/04/03 09:30:37;;;;;;;2.10;1.47;;;25.20;44.90;;;;;;4986978;28;20666;-77
2022/04/03 09:33:06;;;;;;;2.57;1.60;;;24.40;43.50;;;;;;4984927;28;20701;-76
2022/04/03 09:35:52;;;;;;;4.50;1.57;;;23.50;43.00;;;;;;4990435;28;20630;-78
2022/04/03 09:38:18;;;;;;;1.80;1.20;;;23.00;42.90;;;;;;4991828;28;20586;-75
2022/04/03 09:40:49;;;;;;;2.10;1.20;;;22.40;42.70;;;;;;4991456;28;20733;-75
2022/04/03 09:43:21;;;;;;;2.20;1.57;;;21.70;42.40;;;;;;4974720;28;21260;-76
2022/04/03 09:45:58;;;;;;;2.40;2.03;;;21.00;42.20;;;;;;4991026;28;20940;-76
2022/04/03 09:48:28;;;;;;;3.13;2.80;;;20.20;41.10;;;;;;4980241;28;20585;-76
2022/04/03 09:51:02;;;;;;;2.33;2.10;;;19.30;41.20;;;;;;4992039;28;20582;-75
2022/04/03 09:53:38;;;;;;;2.20;1.73;;;18.50;40.90;;;;;;4992152;28;20573;-78
2022/04/03 09:56:03;;;;;;;3.60;1.93;;;17.90;41.90;;;;;;4991089;28;20617;-78
2022/04/03 09:58:29;;;;;;;2.23;1.83;;;17.40;42.30;;;;;;4992626;28;20597;-75
2022/04/03 10:00:55;;;;;;;1.93;1.10;;;17.10;43.20;;;;;;4992482;28;20590;-75
2022/04/03 10:03:23;;;;;;;3.00;1.80;;;16.80;42.50;;;;;;4991913;28;20202;-75
2022/04/03 10:05:50;;;;;;;2.20;1.30;;;16.50;41.90;;;;;;4991763;28;20226;-74
2022/04/03 10:08:18;;;;;;;2.10;1.57;;;16.10;41.40;;;;;;4990714;28;20566;-75
2022/04/03 10:10:47;;;;;;;2.20;1.40;;;15.80;41.70;;;;;;5010351;28;20577;-76
2022/04/03 10:13:13;;;;;;;2.97;1.87;;;15.70;42.70;;;;;;5010822;28;20996;-75
2022/04/03 10:15:39;;;;;;;1.90;1.63;;;15.70;42.50;;;;;;5011955;28;20652;-75
2022/04/03 10:18:05;;;;;;;2.83;1.67;;;16.00;43.90;;;;;;5011931;28;21343;-75
2022/04/03 10:20:35;;;;;;;2.10;1.30;;;16.40;44.60;;;;;;5010687;28;20198;-76
2022/04/03 10:23:11;;;;;;;2.53;1.53;;;16.90;45.60;;;;;;4994265;28;21325;-76
2022/04/03 10:25:41;;;;;;;1.97;1.30;;;17.30;44.80;;;;;;5011998;28;20731;-76
2022/04/03 10:28:08;;;;;;;3.50;2.30;;;17.40;44.10;;;;;;5002591;28;20585;-76
2022/04/03 10:30:40;;;;;;;1.80;1.30;;;17.30;43.30;;;;;;4990634;28;20597;-77
2022/04/03 10:33:08;;;;;;;2.87;1.30;;;16.90;41.70;;;;;;4991925;28;20593;-77
2022/04/03 10:35:36;;;;;;;3.50;1.10;;;16.50;41.90;;;;;;4991554;28;20610;-76
2022/04/03 10:38:04;;;;;;;3.03;0.97;;;16.20;41.30;;;;;;4994081;28;21269;-75
2022/04/03 10:40:35;;;;;;;2.90;2.00;;;16.00;42.60;;;;;;4996042;28;20563;-76
2022/04/03 10:43:06;;;;;;;3.03;2.33;;;16.20;43.90;;;;;;4995925;28;20689;-77
2022/04/03 10:45:52;;;;;;;2.57;1.47;;;16.60;45.40;;;;;;5002420;28;21101;-77
2022/04/03 10:48:20;;;;;;;3.00;2.03;;;17.10;45.50;;;;;;4996752;28;20577;-77
2022/04/03 10:51:23;;;;;;;3.20;1.73;;;17.50;46.20;;;;;;4996627;28;20601;-77
2022/04/03 10:53:59;;;;;;;2.67;1.77;;;17.50;42.20;;;;;;4981974;28;20609;-77
2022/04/03 10:56:28;;;;;;;1.80;1.33;;;17.50;43.30;;;;;;4995900;28;20593;-77
2022/04/03 10:58:57;;;;;;;1.57;1.17;;;17.20;42.50;;;;;;5001078;28;20681;-77
2022/04/03 11:01:24;;;;;;;2.17;1.33;;;16.80;42.80;;;;;;5029206;28;20655;-77
2022/04/03 11:03:54;;;;;;;2.03;1.50;;;16.60;43.10;;;;;;5031065;28;20585;-77
2022/04/03 11:06:23;;;;;;;1.90;1.20;;;16.30;42.90;;;;;;5030939;28;20680;-77
2022/04/03 11:09:06;;;;;;;2.30;1.40;;;16.10;42.30;;;;;;5031672;28;20584;-76
2022/04/03 11:11:39;;;;;;;5.10;4.30;;;15.70;41.80;;;;;;5000552;28;20616;-77
2022/04/03 11:14:10;;;;;;;3.37;2.30;;;15.50;41.70;;;;;;5000632;28;20570;-75
2022/04/03 11:16:52;;;;;;;2.80;1.70;;;15.20;42.30;;;;;;4996221;28;20899;-77
2022/04/03 11:19:41;;;;;;;4.33;2.20;;;15.10;42.70;;;;;;4989251;28;20594;-76
2022/04/03 11:22:08;;;;;;;1.73;1.10;;;15.20;43.80;;;;;;4976120;28;20698;-77
2022/04/03 11:24:36;;;;;;;2.00;1.10;;;15.40;44.80;;;;;;5013574;28;20625;-76
2022/04/03 11:27:03;;;;;;;1.43;1.00;;;15.80;46.20;;;;;;5010976;28;20586;-77
2022/04/03 11:29:29;;;;;;;2.10;1.33;;;16.20;45.90;;;;;;4994632;28;20574;-77
2022/04/03 11:31:56;;;;;;;3.13;1.70;;;16.60;46.70;;;;;;4991676;28;21026;-77
2022/04/03 11:34:29;;;;;;;2.43;1.33;;;16.90;46.10;;;;;;4994515;28;20633;-77
2022/04/03 11:37:00;;;;;;;1.70;1.30;;;17.00;45.30;;;;;;4975932;28;20575;-77
2022/04/03 11:39:31;;;;;;;2.13;1.77;;;17.10;43.90;;;;;;4984055;28;20621;-76
2022/04/03 11:42:02;;;;;;;1.90;1.20;;;16.80;43.10;;;;;;4992621;28;20663;-77
2022/04/03 11:44:29;;;;;;;1.90;1.20;;;16.70;43.20;;;;;;4994355;28;20602;-77
2022/04/03 11:46:55;;;;;;;2.20;1.17;;;16.50;43.80;;;;;;4993777;28;20582;-77
2022/04/03 11:49:28;;;;;;;1.90;1.10;;;16.40;43.90;;;;;;4993917;28;20566;-77
2022/04/03 11:52:06;;;;;;;1.40;0.90;;;16.20;43.50;;;;;;4988952;28;20594;-77
2022/04/03 11:54:35;;;;;;;2.33;1.00;;;16.00;43.20;;;;;;4987771;28;20618;-77
2022/04/03 11:57:08;;;;;;;2.07;1.00;;;15.90;44.00;;;;;;4993573;28;20653;-76
2022/04/03 11:59:37;;;;;;;2.33;1.30;;;16.00;45.20;;;;;;4993837;28;21010;-76
2022/04/03 12:02:15;;;;;;;1.80;1.10;;;16.20;45.80;;;;;;4993244;28;21307;-76
2022/04/03 12:04:44;;;;;;;4.80;1.10;;;16.30;44.50;;;;;;4988917;28;20674;-75
2022/04/03 12:07:14;;;;;;;1.80;0.80;;;16.40;45.00;;;;;;4988154;28;21022;-76
2022/04/03 12:09:44;;;;;;;2.13;1.20;;;16.40;44.30;;;;;;4992353;28;20614;-75
2022/04/03 12:12:11;;;;;;;2.23;1.03;;;16.20;43.60;;;;;;4993062;28;20567;-76
2022/04/03 12:14:42;;;;;;;2.00;1.00;;;16.00;43.40;;;;;;5003041;28;20622;-76
2022/04/03 12:17:18;;;;;;;2.43;1.43;;;15.80;43.60;;;;;;4994625;28;21142;-76
2022/04/03 12:19:48;;;;;;;2.60;1.47;;;15.70;43.80;;;;;;4993386;28;20593;-76
2022/04/03 12:22:20;;;;;;;2.53;1.57;;;15.70;44.40;;;;;;4993082;28;20614;-76
2022/04/03 12:24:49;;;;;;;1.80;1.00;;;15.80;44.70;;;;;;4991774;28;20664;-76
2022/04/03 12:27:14;;;;;;;1.87;0.83;;;15.90;45.70;;;;;;4992849;28;20632;-76
2022/04/03 12:29:54;;;;;;;2.00;1.00;;;16.10;46.00;;;;;;4991775;28;20594;-76
2022/04/03 12:32:23;;;;;;;1.40;0.87;;;16.10;44.90;;;;;;4985581;28;20198;-76
2022/04/03 12:34:52;;;;;;;1.73;1.10;;;16.20;45.50;;;;;;4989442;28;20630;-76
2022/04/03 12:37:19;;;;;;;1.97;1.07;;;16.30;45.80;;;;;;4988374;28;20593;-76
2022/04/03 12:39:52;;;;;;;2.90;1.17;;;16.50;46.40;;;;;;4975086;28;20626;-76
2022/04/03 12:42:37;;;;;;;1.47;0.80;;;16.60;46.30;;;;;;5006748;28;20617;-76
2022/04/03 12:45:17;;;;;;;1.50;0.70;;;16.80;46.60;;;;;;5000853;28;20613;-77
2022/04/03 12:48:04;;;;;;;1.70;0.73;;;17.00;46.50;;;;;;5010729;28;20576;-77
2022/04/03 12:50:31;;;;;;;2.30;1.00;;;17.20;46.60;;;;;;4992768;28;20566;-78
2022/04/03 12:53:05;;;;;;;1.80;0.80;;;17.30;46.80;;;;;;4992788;28;20601;-78
2022/04/03 12:56:00;;;;;;;1.70;0.90;;;17.40;45.90;;;;;;4975467;28;20218;-77
2022/04/03 12:58:30;;;;;;;1.30;0.70;;;17.30;43.60;;;;;;4986617;28;20931;-77